ADDS METAR Data INFO
IDs: Format: Raw Decoded Include TAF

Data at: 0945 UTC 25 Jun 2018

KBNO 250853Z AUTO 25006KT 10SM CLR 11/05 A2995 RMK AO2 SLP112 T01060050 55003
KBNO 250753Z AUTO 16005KT 10SM CLR 10/05 A2995 RMK AO2 SLP113 T01000050 402830022
KBNO 250653Z AUTO 04005KT 10SM CLR 14/04 A2996 RMK AO2 SLP113 T01390044
KBNO 250553Z AUTO 03007KT 10SM CLR 15/04 A2996 RMK AO2 SLP115 T01500044 10283 20128 56004
KBNO 250453Z AUTO 03006KT 10SM CLR 14/04 A2997 RMK AO2 SLP122 T01440044
KBNO 250353Z AUTO 04006KT 10SM CLR 19/07 A2996 RMK AO2 SLP114 T01940067
KBNO 250253Z AUTO 05005KT 10SM CLR 26/04 A2997 RMK AO2 SLP113 T02610039 56017
KBNO 250153Z AUTO 05008KT 10SM CLR 28/02 A2998 RMK AO2 SLP118 T02830017
KBNO 250053Z AUTO VRB04KT 10SM CLR 28/02 A3000 RMK AO2 SLP133 T02780017
KBNO 242353Z AUTO 25005KT 10SM CLR 28/01 A3003 RMK AO2 SLP145 T02780011 10278 20211 58017
KBNO 242253Z AUTO VRB05KT 10SM CLR 27/03 A3005 RMK AO2 SLP150 T02720028
KBNO 242153Z AUTO VRB04KT 10SM CLR 26/04 A3007 RMK AO2 SLP156 T02610039
KBNO 242053Z AUTO VRB03KT 10SM CLR 24/04 A3009 RMK AO2 SLP163 T02440039 58016
KBNO 241953Z AUTO VRB03KT 10SM CLR 23/04 A3011 RMK AO2 SLP171 T02330044
KBNO 241853Z AUTO VRB04KT 10SM CLR 22/04 A3013 RMK AO2 SLP177 T02220044
KBNO 241753Z AUTO 08007KT 10SM CLR 22/04 A3014 RMK AO2 SLP181 T02170044 10217 20022 58008
KBNO 241653Z AUTO 11006KT 10SM CLR 19/05 A3016 RMK AO2 SLP189 T01890050
KBNO 241553Z AUTO 00000KT 10SM CLR 17/04 A3016 RMK AO2 SLP190 T01670044
KBNO 241453Z AUTO 00000KT 10SM CLR 14/04 A3017 RMK AO2 SLP190 T01440039 51005
KBNO 241353Z AUTO 00000KT 10SM CLR 11/04 A3016 RMK AO2 SLP187 T01060039
KBNO 241253Z AUTO 26004KT 10SM CLR 05/03 A3016 RMK AO2 SLP193 T00500028
KBNO 241153Z AUTO 25003KT 10SM CLR 03/01 A3015 RMK AO2 SLP192 T00330011 10122 20022 51003
KBNO 241053Z AUTO 01003KT 10SM CLR 04/02 A3015 RMK AO2 SLP188 T00440022
KBNO 240953Z AUTO 25005KT 10SM CLR 07/03 A3014 RMK AO2 SLP186 T00670033
KBNO 240853Z AUTO 26006KT 10SM CLR 08/03 A3014 RMK AO2 SLP184 T00780033 51002
KBNO 240753Z AUTO 24006KT 10SM CLR 09/04 A3014 RMK AO2 SLP185 T00890039 402390061
KBNO 240653Z AUTO 00000KT 10SM CLR 10/04 A3014 RMK AO2 SLP182 T01000039
KBNO 240553Z AUTO 29008KT 10SM CLR 11/04 A3013 RMK AO2 SLP183 T01060039 10239 20100 51015
KBNO 240453Z AUTO 33009KT 10SM CLR 12/04 A3012 RMK AO2 SLP178 T01220044
KBNO 240353Z AUTO 33008KT 10SM CLR 16/04 A3010 RMK AO2 SLP170 T01560044
KBNO 240253Z AUTO 34011KT 10SM CLR 19/06 A3008 RMK AO2 SLP161 T01890056 53002
KBNO 240153Z AUTO 27010KT 10SM CLR 22/02 A3007 RMK AO2 SLP157 T02220022
KBNO 240053Z AUTO 27010KT 10SM CLR 23/02 A3007 RMK AO2 SLP159 T02330022
KBNO 232353Z AUTO 27007G16KT 10SM CLR 23/03 A3007 RMK AO2 SLP159 T02330028 10239 20178 55001
KBNO 232253Z AUTO 32010G18KT 10SM CLR 24/03 A3007 RMK AO2 SLP161 T02390033
KBNO 232153Z AUTO 26012G18KT 10SM CLR 23/03 A3008 RMK AO2 SLP161 T02280028